createdAt,value
2018-03-17T00:01:30.912Z,6.83
2018-03-17T00:03:58.361Z,7.77
2018-03-17T00:06:25.821Z,6.77
2018-03-17T00:08:53.280Z,6.77
2018-03-17T00:11:20.738Z,7.30
2018-03-17T00:13:48.179Z,8.10
2018-03-17T00:16:15.632Z,7.30
2018-03-17T00:18:43.077Z,7.67
2018-03-17T00:21:11.301Z,7.30
2018-03-17T00:23:38.778Z,7.83
2018-03-17T00:26:06.235Z,7.43
2018-03-17T00:28:33.700Z,6.90
2018-03-17T00:31:01.165Z,7.43
2018-03-17T00:33:28.626Z,8.57
2018-03-17T00:35:56.086Z,7.03
2018-03-17T00:38:24.311Z,8.20
2018-03-17T00:40:51.778Z,5.20
2018-03-17T00:43:19.225Z,7.00
2018-03-17T00:45:46.710Z,7.17
2018-03-17T00:48:14.163Z,8.67
2018-03-17T00:50:41.628Z,9.03
2018-03-17T00:53:09.116Z,8.20
2018-03-17T00:55:37.351Z,7.90
2018-03-17T00:58:04.797Z,7.20
2018-03-17T01:00:32.270Z,7.55
2018-03-17T01:02:59.720Z,6.33
2018-03-17T01:05:27.583Z,8.17
2018-03-17T01:07:55.033Z,6.80
2018-03-17T01:10:22.488Z,6.90
2018-03-17T01:12:49.934Z,7.00
2018-03-17T01:15:17.372Z,6.10
2018-03-17T01:17:44.846Z,7.40
2018-03-17T01:20:12.305Z,6.50
2018-03-17T01:22:39.768Z,5.65
2018-03-17T01:25:07.211Z,6.20
2018-03-17T01:27:34.673Z,6.10
2018-03-17T01:30:02.122Z,6.83
2018-03-17T01:32:29.614Z,6.47
2018-03-17T01:34:57.049Z,6.83
2018-03-17T01:37:24.505Z,6.07
2018-03-17T01:39:51.942Z,6.50
2018-03-17T01:42:19.409Z,7.23
2018-03-17T01:44:46.865Z,6.57
2018-03-17T01:47:14.345Z,6.53
2018-03-17T01:49:41.796Z,6.63
2018-03-17T01:52:09.246Z,6.00
2018-03-17T01:54:36.702Z,6.10
2018-03-17T01:57:04.154Z,6.23
2018-03-17T01:59:33.441Z,6.60
2018-03-17T02:02:00.903Z,5.90
2018-03-17T02:04:29.121Z,6.70
2018-03-17T02:06:56.565Z,7.00
2018-03-17T02:09:24.017Z,7.23
2018-03-17T02:11:51.477Z,7.20
2018-03-17T02:14:18.935Z,6.90
2018-03-17T02:16:46.384Z,7.03
2018-03-17T02:19:13.832Z,6.83
2018-03-17T02:21:41.290Z,7.00
2018-03-17T02:24:08.769Z,7.87
2018-03-17T02:26:36.243Z,7.70
2018-03-17T02:29:03.688Z,8.07
2018-03-17T02:31:31.164Z,8.60
2018-03-17T02:33:58.634Z,8.73
2018-03-17T02:36:26.109Z,9.70
2018-03-17T02:38:55.255Z,8.50
2018-03-17T02:41:22.710Z,8.90
2018-03-17T02:43:50.173Z,7.60
2018-03-17T02:46:17.619Z,7.77
2018-03-17T02:48:45.100Z,8.07
2018-03-17T02:51:12.546Z,8.75
2018-03-17T02:53:40.012Z,9.00
2018-03-17T02:56:07.462Z,10.37
2018-03-17T02:58:34.923Z,10.63
2018-03-17T03:01:02.381Z,10.73
2018-03-17T03:03:29.833Z,10.90
2018-03-17T03:05:57.318Z,12.83
2018-03-17T03:08:24.770Z,13.20
2018-03-17T03:10:52.245Z,13.23
2018-03-17T03:13:20.464Z,12.33
2018-03-17T03:15:47.923Z,13.47
2018-03-17T03:18:15.376Z,14.40
2018-03-17T03:20:42.848Z,15.33
2018-03-17T03:23:10.292Z,16.93
2018-03-17T03:25:37.752Z,17.03
2018-03-17T03:28:05.221Z,18.30
2018-03-17T03:30:32.708Z,22.50
2018-03-17T03:33:00.168Z,20.60
2018-03-17T03:35:27.647Z,19.25
2018-03-17T03:37:55.876Z,19.80
2018-03-17T03:40:23.337Z,19.20
2018-03-17T03:42:51.569Z,19.03
2018-03-17T03:45:19.017Z,18.80
2018-03-17T03:47:48.037Z,18.47
2018-03-17T03:50:15.527Z,20.53
2018-03-17T03:52:42.976Z,21.90
2018-03-17T03:55:10.444Z,22.17
2018-03-17T03:57:37.900Z,20.52
2018-03-17T04:00:05.373Z,27.50
2018-03-17T04:02:32.855Z,22.33
2018-03-17T04:05:01.085Z,26.77
2018-03-17T04:07:28.542Z,27.63
2018-03-17T04:09:56.001Z,36.03
2018-03-17T04:12:23.469Z,26.90
2018-03-17T04:14:50.928Z,33.77
2018-03-17T04:17:18.396Z,29.70
2018-03-17T04:19:45.857Z,42.22
2018-03-17T04:22:14.090Z,40.40
2018-03-17T04:24:41.549Z,28.60
2018-03-17T04:27:09.019Z,39.90
2018-03-17T04:29:36.482Z,36.13
2018-03-17T04:32:03.946Z,45.23
2018-03-17T04:34:31.409Z,46.27
2018-03-17T04:36:58.875Z,35.22
2018-03-17T04:39:26.416Z,40.23
2018-03-17T04:41:53.900Z,44.23
2018-03-17T04:44:22.121Z,39.13
2018-03-17T04:46:49.586Z,36.23
2018-03-17T04:49:17.049Z,57.40
2018-03-17T04:51:44.525Z,43.97
2018-03-17T04:54:13.489Z,36.87
2018-03-17T04:56:40.945Z,42.20
2018-03-17T04:59:08.395Z,38.13
2018-03-17T05:01:35.873Z,36.33
2018-03-17T05:04:03.341Z,41.40
2018-03-17T05:06:30.806Z,43.90
2018-03-17T05:08:58.290Z,29.93
2018-03-17T05:11:26.518Z,37.63
2018-03-17T05:13:53.998Z,36.17
2018-03-17T05:16:21.484Z,35.77
2018-03-17T05:18:49.713Z,45.57
2018-03-17T05:21:17.185Z,36.13
2018-03-17T05:23:44.658Z,35.63
2018-03-17T05:26:12.881Z,32.20
2018-03-17T05:28:40.349Z,29.10
2018-03-17T05:31:07.817Z,29.87
2018-03-17T05:33:35.302Z,40.90
2018-03-17T05:36:03.678Z,47.53
2018-03-17T05:38:31.940Z,34.90
2018-03-17T05:40:59.423Z,31.90
2018-03-17T05:43:26.880Z,45.70
2018-03-17T05:45:55.096Z,34.63
2018-03-17T05:48:22.549Z,30.97
2018-03-17T05:50:50.013Z,37.80
2018-03-17T05:53:17.520Z,32.37
2018-03-17T05:55:44.962Z,35.40
2018-03-17T05:58:12.726Z,33.42
2018-03-17T06:00:40.179Z,53.03
2018-03-17T06:03:07.643Z,31.20
2018-03-17T06:05:35.096Z,30.47
2018-03-17T06:08:04.065Z,32.07
2018-03-17T06:10:31.562Z,33.50
2018-03-17T06:12:59.042Z,31.13
2018-03-17T06:15:26.575Z,35.60
2018-03-17T06:17:54.045Z,33.40
2018-03-17T06:20:22.269Z,30.00
2018-03-17T06:22:49.738Z,31.80
2018-03-17T06:25:17.254Z,29.77
2018-03-17T06:27:45.192Z,29.70
2018-03-17T06:30:12.641Z,28.73
2018-03-17T06:32:40.106Z,31.30
2018-03-17T06:35:07.588Z,29.70
2018-03-17T06:37:35.818Z,27.30
2018-03-17T06:40:03.273Z,28.93
2018-03-17T06:42:30.736Z,28.13
2018-03-17T06:44:58.205Z,31.20
2018-03-17T06:47:25.666Z,29.73
2018-03-17T06:49:53.168Z,29.70
2018-03-17T06:52:21.373Z,31.53
2018-03-17T06:54:48.847Z,29.30
2018-03-17T06:57:16.312Z,35.70
2018-03-17T06:59:43.782Z,36.93
2018-03-17T07:02:12.002Z,31.47
2018-03-17T07:04:39.462Z,30.13
2018-03-17T07:07:06.919Z,32.17
2018-03-17T07:09:34.402Z,30.00
2018-03-17T07:12:02.033Z,30.47
2018-03-17T07:14:29.537Z,33.43
2018-03-17T07:16:56.997Z,33.58
2018-03-17T07:19:24.480Z,32.27
2018-03-17T07:21:51.929Z,30.73
2018-03-17T07:24:20.180Z,32.03
2018-03-17T07:26:47.629Z,30.33
2018-03-17T07:29:15.098Z,31.73
2018-03-17T07:31:42.565Z,32.93
2018-03-17T07:34:10.105Z,34.40
2018-03-17T07:36:37.578Z,32.57
2018-03-17T07:39:05.035Z,31.97
2018-03-17T07:41:32.497Z,30.83
2018-03-17T07:44:00.725Z,29.67
2018-03-17T07:46:28.177Z,32.17
2018-03-17T07:48:55.650Z,33.00
2018-03-17T07:51:23.113Z,29.77
2018-03-17T07:53:50.576Z,32.20
2018-03-17T07:56:18.049Z,31.30
2018-03-17T07:58:45.510Z,31.33
2018-03-17T08:01:12.965Z,31.12
2018-03-17T08:03:40.429Z,29.60
2018-03-17T08:06:08.013Z,30.30
2018-03-17T08:08:36.287Z,30.07
2018-03-17T08:11:03.732Z,32.17
2018-03-17T08:13:31.962Z,31.97
2018-03-17T08:15:59.426Z,32.43
2018-03-17T08:18:26.892Z,30.97
2018-03-17T08:20:54.353Z,32.20
2018-03-17T08:23:21.804Z,32.23
2018-03-17T08:25:49.270Z,30.63
2018-03-17T08:28:16.753Z,31.80
2018-03-17T08:30:44.193Z,31.33
2018-03-17T08:33:12.461Z,33.33
2018-03-17T08:35:39.917Z,32.33
2018-03-17T08:38:08.884Z,34.23
2018-03-17T08:40:36.365Z,34.30
2018-03-17T08:43:03.822Z,33.10
2018-03-17T08:45:31.285Z,36.60
2018-03-17T08:47:58.846Z,33.47
2018-03-17T08:50:26.394Z,32.10
2018-03-17T08:52:53.870Z,33.63
2018-03-17T08:55:21.322Z,34.37
2018-03-17T08:57:48.789Z,33.50
2018-03-17T09:00:16.269Z,33.10
2018-03-17T09:02:44.490Z,35.37
2018-03-17T09:05:11.983Z,33.80
2018-03-17T09:07:39.460Z,31.27
2018-03-17T09:10:07.681Z,33.73
2018-03-17T09:12:35.138Z,32.60
2018-03-17T09:15:02.656Z,33.10
2018-03-17T09:17:30.871Z,32.83
2018-03-17T09:19:58.340Z,31.93
2018-03-17T09:22:25.802Z,33.20
2018-03-17T09:24:53.255Z,32.13
2018-03-17T09:27:20.721Z,31.40
2018-03-17T09:29:48.194Z,31.33
2018-03-17T09:32:16.434Z,31.10
2018-03-17T09:34:44.147Z,30.80
2018-03-17T09:37:11.825Z,31.23
2018-03-17T09:39:40.529Z,30.67
2018-03-17T09:42:07.994Z,27.33
2018-03-17T09:44:35.458Z,26.40
2018-03-17T09:47:02.985Z,26.93
2018-03-17T09:49:30.439Z,27.27
2018-03-17T09:51:57.904Z,28.10
2018-03-17T09:54:25.358Z,29.23
2018-03-17T09:56:52.832Z,30.10
2018-03-17T09:59:20.301Z,26.70
2018-03-17T10:01:47.777Z,27.00
2018-03-17T10:04:15.244Z,28.67
2018-03-17T10:06:42.714Z,27.73
2018-03-17T10:09:10.170Z,27.97
2018-03-17T10:11:51.684Z,29.23
2018-03-17T10:14:19.145Z,25.87
2018-03-17T10:16:46.678Z,23.73
2018-03-17T10:19:14.900Z,27.47
2018-03-17T10:21:42.349Z,27.90
2018-03-17T10:24:09.818Z,27.55
2018-03-17T10:26:37.277Z,29.77
2018-03-17T10:29:04.743Z,27.97
2018-03-17T10:34:26.689Z,26.70
2018-03-17T10:36:54.164Z,29.97
2018-03-17T10:39:21.630Z,27.63
2018-03-17T10:41:49.899Z,28.63
2018-03-17T10:44:17.358Z,27.83
2018-03-17T10:46:45.589Z,28.57
2018-03-17T10:49:13.071Z,27.90
2018-03-17T10:51:40.532Z,29.83
2018-03-17T10:54:07.998Z,30.43
2018-03-17T10:56:35.459Z,29.73
2018-03-17T10:59:03.020Z,27.93
2018-03-17T11:01:30.496Z,29.20
2018-03-17T11:03:57.966Z,28.30
2018-03-17T11:06:26.255Z,27.92
2018-03-17T11:08:53.725Z,28.50
2018-03-17T11:11:21.916Z,28.30
2018-03-17T11:13:49.784Z,28.70
2018-03-17T11:16:17.254Z,29.47
2018-03-17T11:18:44.710Z,30.20
2018-03-17T11:21:12.187Z,28.20
2018-03-17T11:23:40.445Z,28.20
2018-03-17T11:26:07.901Z,27.00
2018-03-17T11:28:35.370Z,27.13
2018-03-17T11:31:02.849Z,26.63
2018-03-17T11:33:30.302Z,27.63
2018-03-17T11:35:58.565Z,27.90
2018-03-17T11:38:27.454Z,28.02
2018-03-17T11:40:54.914Z,26.60
2018-03-17T11:43:23.128Z,29.13
2018-03-17T11:45:50.593Z,29.27
2018-03-17T11:48:18.045Z,27.47
2018-03-17T11:50:45.512Z,28.87
2018-03-17T11:53:12.977Z,27.20
2018-03-17T11:55:40.441Z,28.80
2018-03-17T11:58:07.893Z,27.70
2018-03-17T12:00:36.011Z,27.08
2018-03-17T12:03:04.237Z,25.97
2018-03-17T12:05:31.708Z,28.17
2018-03-17T12:07:59.171Z,28.13
2018-03-17T12:10:26.631Z,26.73
2018-03-17T12:12:54.098Z,26.90
2018-03-17T12:15:21.564Z,27.47
2018-03-17T12:17:49.029Z,30.70
2018-03-17T12:20:16.504Z,25.90
2018-03-17T12:22:44.733Z,29.23
2018-03-17T12:25:12.193Z,26.97
2018-03-17T12:27:39.757Z,26.00
2018-03-17T12:30:07.229Z,28.00
2018-03-17T12:32:36.206Z,26.67
2018-03-17T12:35:03.666Z,27.30
2018-03-17T12:37:31.119Z,27.30
2018-03-17T12:39:58.571Z,26.20
2018-03-17T12:42:26.029Z,24.90
2018-03-17T12:44:53.520Z,25.47
2018-03-17T12:47:20.977Z,26.20
2018-03-17T12:49:48.445Z,27.17
2018-03-17T12:52:16.677Z,29.27
2018-03-17T12:54:44.260Z,25.93
2018-03-17T12:57:11.734Z,24.47
2018-03-17T12:59:39.962Z,25.27
2018-03-17T13:02:07.431Z,23.53
2018-03-17T13:04:34.888Z,23.27
2018-03-17T13:07:02.337Z,22.27
2018-03-17T13:09:29.811Z,23.27
2018-03-17T13:11:57.266Z,23.33
2018-03-17T13:14:24.737Z,22.93
2018-03-17T13:16:52.189Z,24.57
2018-03-17T13:19:31.481Z,24.87
2018-03-17T13:21:58.936Z,24.13
2018-03-17T13:24:26.413Z,23.90
2018-03-17T13:27:05.705Z,22.27
2018-03-17T13:29:33.935Z,23.73
2018-03-17T13:32:01.405Z,24.17
2018-03-17T13:34:28.886Z,21.27
2018-03-17T13:50:38.119Z,25.77
2018-03-17T13:53:06.342Z,26.37
2018-03-17T13:55:33.810Z,24.50
2018-03-17T13:58:01.263Z,23.03
2018-03-17T14:00:28.725Z,25.23
2018-03-17T14:02:56.186Z,24.53
2018-03-17T14:05:24.686Z,22.10
2018-03-17T14:07:52.941Z,22.60
2018-03-17T14:10:20.411Z,23.40
2018-03-17T14:12:48.076Z,23.73
2018-03-17T14:15:15.548Z,21.30
2018-03-17T14:17:43.005Z,23.33
2018-03-17T14:20:10.477Z,24.87
2018-03-17T14:22:38.694Z,24.00
2018-03-17T14:25:06.153Z,22.90
2018-03-17T14:27:33.619Z,22.50
2018-03-17T14:30:01.082Z,22.97
2018-03-17T14:32:28.544Z,24.60
2018-03-17T14:34:56.019Z,25.10
2018-03-17T14:37:24.977Z,26.63
2018-03-17T14:39:52.445Z,24.73
2018-03-17T14:42:19.940Z,24.30
2018-03-17T14:44:48.121Z,24.23
2018-03-17T14:47:16.344Z,24.90
2018-03-17T14:49:43.809Z,25.03
2018-03-17T14:52:11.262Z,26.13
2018-03-17T14:54:38.721Z,25.73
2018-03-17T14:57:06.188Z,26.77
2018-03-17T14:59:33.648Z,27.80
2018-03-17T15:02:01.114Z,25.05
2018-03-17T15:04:28.574Z,26.80
2018-03-17T15:06:56.040Z,25.50
2018-03-17T15:09:23.498Z,27.03
2018-03-17T15:11:51.052Z,25.90
2018-03-17T15:14:18.522Z,26.30
2018-03-17T15:16:45.975Z,27.97
2018-03-17T15:19:14.203Z,26.60
2018-03-17T15:21:41.660Z,26.33
2018-03-17T15:24:09.123Z,27.25
2018-03-17T15:26:36.629Z,27.83
2018-03-17T15:29:04.853Z,27.80
2018-03-17T15:31:32.313Z,26.20
2018-03-17T15:33:59.801Z,26.67
2018-03-17T15:36:27.233Z,26.97
2018-03-17T15:38:54.692Z,25.27
2018-03-17T15:41:22.160Z,28.00
2018-03-17T15:43:49.628Z,26.37
2018-03-17T15:46:17.152Z,27.30
2018-03-17T15:48:45.351Z,29.00
2018-03-17T15:51:12.819Z,26.90
2018-03-17T15:53:40.275Z,25.97
2018-03-17T15:56:08.533Z,26.57
2018-03-17T15:58:35.997Z,27.93
2018-03-17T16:01:03.489Z,26.73
2018-03-17T16:03:31.765Z,26.60
2018-03-17T16:05:59.985Z,26.90
2018-03-17T16:08:27.472Z,26.63
2018-03-17T16:10:54.953Z,29.10
2018-03-17T16:13:23.197Z,30.87
2018-03-17T16:15:50.665Z,29.07
2018-03-17T16:18:18.126Z,28.93
2018-03-17T16:20:45.597Z,28.73
2018-03-17T16:23:13.067Z,28.73
2018-03-17T16:25:41.321Z,28.93
2018-03-17T16:28:08.768Z,28.90
2018-03-17T16:30:36.218Z,30.33
2018-03-17T16:33:03.695Z,27.23
2018-03-17T16:35:31.195Z,28.60
2018-03-17T16:37:58.662Z,28.33
2018-03-17T16:40:26.159Z,29.20
2018-03-17T16:42:53.620Z,27.92
2018-03-17T16:45:21.102Z,27.70
2018-03-17T16:47:49.327Z,27.70
2018-03-17T16:50:16.792Z,27.50
2018-03-17T16:52:44.249Z,27.50
2018-03-17T16:55:11.701Z,28.30
2018-03-17T16:57:39.220Z,28.80
2018-03-17T17:00:06.638Z,28.97
2018-03-17T17:02:34.142Z,27.73
2018-03-17T17:05:01.589Z,29.70
2018-03-17T17:07:29.104Z,30.33
2018-03-17T17:09:56.557Z,29.80
2018-03-17T17:12:24.030Z,28.17
2018-03-17T17:14:51.509Z,27.17
2018-03-17T17:17:19.744Z,29.50
2018-03-17T17:19:47.242Z,28.43
2018-03-17T17:22:15.473Z,28.13
2018-03-17T17:24:42.948Z,28.47
2018-03-17T17:27:10.421Z,26.73
2018-03-17T17:29:38.840Z,26.50
2018-03-17T17:32:06.310Z,27.50
2018-03-17T17:34:33.788Z,31.00
2018-03-17T17:37:01.264Z,28.55
2018-03-17T17:39:28.729Z,26.47
2018-03-17T17:41:56.182Z,27.33
2018-03-17T17:44:23.636Z,28.73
2018-03-17T17:46:51.110Z,26.57
2018-03-17T17:49:18.578Z,33.63
2018-03-17T17:51:46.796Z,28.63
2018-03-17T17:54:14.265Z,25.80
2018-03-17T17:56:41.736Z,23.80
2018-03-17T17:59:09.557Z,25.55
2018-03-17T18:01:37.014Z,26.40
2018-03-17T18:04:04.500Z,25.20
2018-03-17T18:06:31.959Z,25.77
2018-03-17T18:09:00.722Z,26.93
2018-03-17T18:11:28.182Z,26.10
2018-03-17T18:13:55.673Z,24.40
2018-03-17T18:16:23.128Z,25.83
2018-03-17T18:18:50.602Z,26.07
2018-03-17T18:21:18.062Z,23.43
2018-03-17T18:23:45.536Z,24.87
2018-03-17T18:26:13.762Z,27.10
2018-03-17T18:28:41.218Z,25.33
2018-03-17T18:31:09.500Z,26.50
2018-03-17T18:33:36.952Z,24.50
2018-03-17T18:36:04.440Z,24.80
2018-03-17T18:38:31.919Z,24.63
2018-03-17T18:41:00.152Z,24.60
2018-03-17T18:43:27.624Z,23.87
2018-03-17T18:45:55.089Z,24.90
2018-03-17T18:48:25.361Z,24.30
2018-03-17T18:50:52.822Z,25.23
2018-03-17T18:53:20.296Z,25.93
2018-03-17T18:55:47.773Z,25.40
2018-03-17T18:58:15.244Z,25.30
2018-03-17T19:00:42.912Z,24.97
2018-03-17T19:03:10.378Z,25.70
2018-03-17T19:05:38.617Z,24.80
2018-03-17T19:08:06.083Z,26.27
2018-03-17T19:10:33.565Z,26.30
2018-03-17T19:13:01.850Z,27.30
2018-03-17T19:15:30.069Z,26.40
2018-03-17T19:17:57.524Z,25.77
2018-03-17T19:20:25.042Z,23.40
2018-03-17T19:22:53.274Z,24.70
2018-03-17T19:25:20.750Z,26.63
2018-03-17T19:27:48.208Z,26.50
2018-03-17T19:30:15.693Z,26.63
2018-03-17T19:32:43.963Z,25.90
2018-03-17T19:35:12.207Z,27.30
2018-03-17T19:37:39.681Z,27.10
2018-03-17T19:40:07.159Z,26.40
2018-03-17T19:42:35.393Z,26.97
2018-03-17T19:45:02.851Z,26.90
2018-03-17T19:47:30.344Z,27.40
2018-03-17T19:49:58.573Z,27.67
2018-03-17T19:52:26.033Z,28.73
2018-03-17T19:54:53.500Z,27.80
2018-03-17T19:57:21.069Z,29.27
2018-03-17T19:59:48.540Z,26.10
2018-03-17T20:02:16.017Z,25.87
2018-03-17T20:04:43.538Z,26.17
2018-03-17T20:07:11.015Z,29.20
2018-03-17T20:09:39.253Z,28.40
2018-03-17T20:12:06.715Z,27.20
2018-03-17T20:14:34.177Z,28.73
2018-03-17T20:17:01.665Z,31.33
2018-03-17T20:19:29.920Z,27.67
2018-03-17T20:21:57.388Z,27.83
2018-03-17T20:24:24.872Z,27.30
2018-03-17T20:26:53.117Z,27.83
2018-03-17T20:29:20.589Z,26.60
2018-03-17T20:31:48.845Z,28.43
2018-03-17T20:34:16.324Z,26.50
2018-03-17T20:36:44.585Z,31.90
2018-03-17T20:39:12.050Z,29.80
2018-03-17T20:41:39.511Z,30.23
2018-03-17T20:44:07.745Z,30.30
2018-03-17T20:46:35.202Z,30.43
2018-03-17T20:49:02.680Z,30.37
2018-03-17T20:51:30.145Z,30.87
2018-03-17T20:53:57.605Z,29.43
2018-03-17T20:56:25.080Z,31.00
2018-03-17T20:58:53.318Z,29.13
2018-03-17T21:01:20.798Z,28.33
2018-03-17T21:03:48.276Z,29.47
2018-03-17T21:06:16.509Z,29.58
2018-03-17T21:08:43.968Z,29.83
2018-03-17T21:11:11.433Z,28.57
2018-03-17T21:13:38.896Z,31.10
2018-03-17T21:16:06.380Z,32.23
2018-03-17T21:18:34.607Z,30.67
2018-03-17T21:21:02.069Z,31.03
2018-03-17T21:23:29.531Z,31.30
2018-03-17T21:25:56.999Z,31.60
2018-03-17T21:28:24.461Z,31.70
2018-03-17T21:30:51.938Z,29.70
2018-03-17T21:33:20.284Z,30.93
2018-03-17T21:35:47.752Z,29.67
2018-03-17T21:38:15.234Z,29.67
2018-03-17T21:40:43.478Z,29.07
2018-03-17T21:43:10.934Z,32.67
2018-03-17T21:45:38.401Z,30.77
2018-03-17T21:48:05.869Z,30.20
2018-03-17T21:50:34.118Z,30.67
2018-03-17T21:53:01.589Z,29.10
2018-03-17T21:55:29.069Z,29.17
2018-03-17T21:57:57.333Z,30.73
2018-03-17T22:00:26.138Z,28.83
2018-03-17T22:02:54.383Z,30.40
2018-03-17T22:05:21.853Z,30.53
2018-03-17T22:07:50.151Z,30.60
2018-03-17T22:10:18.366Z,32.60
2018-03-17T22:12:45.824Z,31.30
2018-03-17T22:15:13.301Z,31.53
2018-03-17T22:17:40.749Z,29.73
2018-03-17T22:20:08.214Z,30.73
2018-03-17T22:22:35.674Z,29.50
2018-03-17T22:25:03.148Z,30.40
2018-03-17T22:27:30.631Z,29.47
2018-03-17T22:29:58.858Z,28.33
2018-03-17T22:32:26.317Z,31.57
2018-03-17T22:34:53.784Z,29.58
2018-03-17T22:37:21.251Z,30.20
2018-03-17T22:39:48.704Z,30.20
2018-03-17T22:42:16.165Z,31.20
2018-03-17T22:44:43.653Z,28.13
2018-03-17T22:47:11.896Z,28.37
2018-03-17T22:49:39.358Z,30.07
2018-03-17T22:52:06.853Z,27.33
2018-03-17T22:54:34.330Z,29.90
2018-03-17T22:57:01.802Z,28.47
2018-03-17T22:59:29.269Z,28.87
2018-03-17T23:01:56.736Z,29.17
2018-03-17T23:04:24.220Z,28.73
2018-03-17T23:06:52.444Z,28.80
2018-03-17T23:09:19.916Z,27.67
2018-03-17T23:11:47.396Z,28.30
2018-03-17T23:14:15.611Z,28.20
2018-03-17T23:16:43.073Z,28.47
2018-03-17T23:19:10.578Z,27.90
2018-03-17T23:21:38.064Z,28.77
2018-03-17T23:24:06.297Z,28.10
2018-03-17T23:26:33.763Z,28.57
2018-03-17T23:29:01.238Z,27.85
2018-03-17T23:31:28.709Z,28.37
2018-03-17T23:33:56.926Z,28.63
2018-03-17T23:36:24.419Z,25.17
2018-03-17T23:38:51.881Z,27.47
2018-03-17T23:41:19.346Z,27.50
2018-03-17T23:43:47.594Z,27.67
2018-03-17T23:46:15.050Z,27.23
2018-03-17T23:48:42.960Z,27.90
2018-03-17T23:51:11.188Z,26.83
2018-03-17T23:53:38.641Z,27.57
2018-03-17T23:56:06.114Z,25.60
2018-03-17T23:58:33.600Z,26.17
